createdAt,value
2022-10-13T00:14:06.627Z,101064.80
2022-10-13T00:16:40.396Z,101057.20
2022-10-13T00:19:15.065Z,101057.60
2022-10-13T00:21:47.167Z,101056.60
2022-10-13T00:24:18.945Z,101050.60
2022-10-13T00:26:52.495Z,101044.60
2022-10-13T00:29:24.231Z,101046.20
2022-10-13T00:31:56.025Z,101043.80
2022-10-13T00:34:27.765Z,101042.00
2022-10-13T00:36:59.484Z,101044.00
2022-10-13T00:39:32.610Z,101040.00
2022-10-13T00:42:05.031Z,101038.60
2022-10-13T00:45:01.312Z,101039.40
2022-10-13T00:47:38.201Z,101042.20
2022-10-13T00:50:14.370Z,101043.60
2022-10-13T00:52:47.677Z,101043.80
2022-10-13T00:55:23.095Z,101040.80
2022-10-13T00:58:02.747Z,101034.60
2022-10-13T01:00:37.435Z,101040.20
2022-10-13T01:03:09.204Z,101030.40
2022-10-13T01:05:42.307Z,101026.60
2022-10-13T01:08:15.181Z,101025.40
2022-10-13T01:10:58.092Z,101028.20
2022-10-13T01:13:36.640Z,101030.00
2022-10-13T01:16:14.660Z,101032.40
2022-10-13T01:18:51.602Z,101032.80
2022-10-13T01:21:32.909Z,101030.20
2022-10-13T01:24:28.597Z,101029.00
2022-10-13T01:27:09.991Z,101025.20
2022-10-13T01:30:00.710Z,101024.40
2022-10-13T01:32:44.547Z,101018.00
2022-10-13T01:35:22.617Z,101016.60
2022-10-13T01:38:03.503Z,101012.00
2022-10-13T01:40:44.714Z,101013.40
2022-10-13T01:43:23.612Z,101007.00
2022-10-13T01:45:59.113Z,101005.60
2022-10-13T01:48:32.344Z,101002.60
2022-10-13T01:51:04.616Z,101002.00
2022-10-13T01:53:37.190Z,100995.40
2022-10-13T01:56:09.847Z,100998.60
2022-10-13T01:58:49.573Z,100994.40
2022-10-13T02:01:40.153Z,100991.00
2022-10-13T02:04:24.592Z,100991.20
2022-10-13T02:07:02.355Z,100983.20
2022-10-13T02:09:42.666Z,100984.40
2022-10-13T02:12:19.889Z,100980.60
2022-10-13T02:14:54.772Z,100982.60
2022-10-13T02:17:28.267Z,100980.20
2022-10-13T02:20:00.468Z,100977.60
2022-10-13T02:22:40.832Z,100983.40
2022-10-13T02:25:13.192Z,100975.80
2022-10-13T02:27:45.137Z,100971.00
2022-10-13T02:30:25.483Z,100967.80
2022-10-13T02:32:57.553Z,100967.60
2022-10-13T02:35:29.969Z,100969.00
2022-10-13T02:38:03.784Z,100970.40
2022-10-13T02:40:36.519Z,100976.80
2022-10-13T02:43:08.315Z,100971.20
2022-10-13T02:45:40.188Z,100975.60
2022-10-13T02:48:11.923Z,100974.00
2022-10-13T02:50:43.864Z,100967.00
2022-10-13T02:53:15.700Z,100963.20
2022-10-13T02:55:48.429Z,100965.40
2022-10-13T02:58:20.265Z,100959.80
2022-10-13T03:00:52.161Z,100963.80
2022-10-13T03:03:23.873Z,100960.80
2022-10-13T03:05:56.084Z,100960.80
2022-10-13T03:08:27.853Z,100970.00
2022-10-13T03:11:00.213Z,100967.80
2022-10-13T03:13:32.271Z,100966.00
2022-10-13T03:16:11.606Z,100968.00
2022-10-13T03:18:43.411Z,100958.60
2022-10-13T03:21:15.175Z,100960.80
2022-10-13T03:23:46.954Z,100961.00
2022-10-13T03:26:19.150Z,100962.40
2022-10-13T03:28:53.080Z,100961.40
2022-10-13T03:31:25.040Z,100966.00
2022-10-13T03:33:59.043Z,100959.60
2022-10-13T03:36:31.155Z,100963.80
2022-10-13T03:39:03.167Z,100965.40
2022-10-13T03:41:34.893Z,100961.80
2022-10-13T03:44:07.654Z,100961.80
2022-10-13T03:46:39.418Z,100962.20
2022-10-13T03:49:12.141Z,100957.00
2022-10-13T03:51:43.857Z,100947.60
2022-10-13T03:54:16.214Z,100950.00
2022-10-13T03:56:49.518Z,100947.20
2022-10-13T03:59:21.207Z,100953.20
2022-10-13T04:01:52.971Z,100948.40
2022-10-13T04:04:24.796Z,100946.40
2022-10-13T04:07:01.217Z,100949.00
2022-10-13T04:09:33.758Z,100949.00
2022-10-13T04:12:05.793Z,100949.80
2022-10-13T04:14:37.864Z,100947.40
2022-10-13T04:17:12.909Z,100941.40
2022-10-13T04:19:44.725Z,100945.80
2022-10-13T04:22:16.428Z,100945.00
2022-10-13T04:24:51.806Z,100944.60
2022-10-13T04:27:23.923Z,100943.40
2022-10-13T04:29:55.785Z,100943.00
2022-10-13T04:32:27.958Z,100944.80
2022-10-13T04:34:59.876Z,100942.00
2022-10-13T04:37:31.641Z,100943.80
2022-10-13T04:40:03.415Z,100946.00
2022-10-13T04:42:46.065Z,100942.20
2022-10-13T04:45:18.699Z,100936.60
2022-10-13T04:47:54.333Z,100937.40
2022-10-13T04:50:28.516Z,100939.20
2022-10-13T04:53:06.941Z,100939.00
2022-10-13T04:55:39.268Z,100939.60
2022-10-13T04:58:13.432Z,100941.00
2022-10-13T05:00:48.206Z,100943.60
2022-10-13T05:03:22.016Z,100937.00
2022-10-13T05:05:55.279Z,100940.20
2022-10-13T05:08:27.142Z,100935.40
2022-10-13T05:11:02.200Z,100934.40
2022-10-13T05:13:33.945Z,100933.60
2022-10-13T05:16:11.267Z,100933.00
2022-10-13T05:18:43.336Z,100931.40
2022-10-13T05:21:17.481Z,100926.80
2022-10-13T05:23:49.608Z,100926.60
2022-10-13T05:26:21.472Z,100922.00
2022-10-13T05:28:53.277Z,100926.00
2022-10-13T05:31:27.539Z,100922.60
2022-10-13T05:34:01.740Z,100922.20
2022-10-13T05:36:36.120Z,100918.00
2022-10-13T05:39:08.971Z,100919.40
2022-10-13T05:41:40.913Z,100920.60
2022-10-13T05:44:18.174Z,100924.00
2022-10-13T05:46:58.328Z,100920.00
2022-10-13T05:49:30.085Z,100916.40
2022-10-13T05:52:05.284Z,100918.20
2022-10-13T05:54:40.438Z,100922.60
2022-10-13T05:57:17.122Z,100919.40
2022-10-13T05:59:53.426Z,100916.80
2022-10-13T06:02:31.595Z,100915.00
2022-10-13T06:05:04.458Z,100914.00
2022-10-13T06:07:37.808Z,100910.40
2022-10-13T06:10:11.735Z,100911.00
2022-10-13T06:12:43.661Z,100910.00
2022-10-13T06:15:15.537Z,100906.00
2022-10-13T06:17:47.428Z,100907.40
2022-10-13T06:20:19.511Z,100908.60
2022-10-13T06:22:51.335Z,100906.60
2022-10-13T06:25:23.405Z,100905.40
2022-10-13T06:27:55.192Z,100908.20
2022-10-13T06:30:27.532Z,100907.80
2022-10-13T06:32:59.492Z,100911.60
2022-10-13T06:35:31.212Z,100909.00
2022-10-13T06:38:02.972Z,100906.00
2022-10-13T06:40:34.825Z,100904.40
2022-10-13T06:43:07.162Z,100898.60
2022-10-13T06:45:45.730Z,100900.20
2022-10-13T06:48:17.547Z,100897.00
2022-10-13T06:50:49.941Z,100895.40
2022-10-13T06:53:21.697Z,100893.40
2022-10-13T06:55:56.808Z,100888.20
2022-10-13T06:58:28.964Z,100884.00
2022-10-13T07:01:00.811Z,100891.60
2022-10-13T07:03:32.569Z,100886.60
2022-10-13T07:06:05.567Z,100890.00
2022-10-13T07:08:37.511Z,100890.00
2022-10-13T07:11:16.198Z,100892.40
2022-10-13T07:13:52.278Z,100889.00
2022-10-13T07:16:24.053Z,100889.80
2022-10-13T07:18:55.763Z,100892.00
2022-10-13T07:21:27.500Z,100897.00
2022-10-13T07:23:59.234Z,100892.20
2022-10-13T07:26:34.401Z,100887.80
2022-10-13T07:29:08.074Z,100887.20
2022-10-13T07:31:39.661Z,100884.80
2022-10-13T07:34:11.786Z,100882.80
2022-10-13T07:36:44.008Z,100878.40
2022-10-13T07:39:16.034Z,100877.20
2022-10-13T07:41:51.040Z,100880.80
2022-10-13T07:44:23.223Z,100879.00
2022-10-13T07:46:55.289Z,100877.80
2022-10-13T07:49:27.251Z,100879.80
2022-10-13T07:51:59.502Z,100873.00
2022-10-13T07:54:31.922Z,100873.40
2022-10-13T07:57:04.387Z,100865.80
2022-10-13T07:59:36.066Z,100868.00
2022-10-13T08:02:07.742Z,100864.60
2022-10-13T08:04:39.740Z,100864.40
2022-10-13T08:07:11.606Z,100860.80
2022-10-13T08:09:43.899Z,100859.20
2022-10-13T08:12:15.651Z,100858.40
2022-10-13T08:17:23.938Z,100848.80
2022-10-13T08:19:56.275Z,100845.00
2022-10-13T08:22:31.688Z,100846.40
2022-10-13T08:25:03.897Z,100846.00
2022-10-13T08:27:50.570Z,100843.40
2022-10-13T08:30:23.615Z,100843.40
2022-10-13T08:32:55.494Z,100839.20
2022-10-13T08:35:30.157Z,100843.60
2022-10-13T08:38:05.889Z,100840.80
2022-10-13T08:40:38.626Z,100843.00
2022-10-13T08:43:15.389Z,100837.40
2022-10-13T08:45:49.567Z,100839.80
2022-10-13T08:48:23.563Z,100833.80
2022-10-13T08:50:59.069Z,100830.00
2022-10-13T08:53:34.673Z,100831.80
2022-10-13T08:56:11.513Z,100827.00
2022-10-13T08:58:47.091Z,100822.80
2022-10-13T09:01:20.724Z,100829.20
2022-10-13T09:03:57.889Z,100828.80
2022-10-13T09:06:33.317Z,100830.40
2022-10-13T09:09:07.528Z,100832.40
2022-10-13T09:11:41.542Z,100829.00
2022-10-13T09:14:21.995Z,100826.20
2022-10-13T09:16:55.152Z,100818.20
2022-10-13T09:19:30.545Z,100815.80
2022-10-13T09:22:23.317Z,100812.00
2022-10-13T09:25:11.081Z,100815.60
2022-10-13T09:27:48.172Z,100815.80
2022-10-13T09:30:35.270Z,100816.80
2022-10-13T09:33:25.578Z,100814.80
2022-10-13T09:36:12.901Z,100810.00
2022-10-13T09:39:06.119Z,100806.80
2022-10-13T09:41:38.690Z,100808.60
2022-10-13T09:44:27.851Z,100802.60
2022-10-13T09:47:02.074Z,100803.20
2022-10-13T09:49:37.761Z,100802.20
2022-10-13T09:52:22.707Z,100803.20
2022-10-13T09:54:57.774Z,100797.80
2022-10-13T09:57:39.170Z,100791.80
2022-10-13T10:00:20.391Z,100791.80
2022-10-13T10:02:57.768Z,100792.20
2022-10-13T10:05:35.501Z,100791.00
2022-10-13T10:08:16.024Z,100791.00
2022-10-13T10:10:48.391Z,100789.00
2022-10-13T10:19:32.416Z,100783.20
2022-10-13T10:22:14.339Z,100777.40
2022-10-13T10:24:51.989Z,100779.20
2022-10-13T10:27:29.490Z,100771.60
2022-10-13T10:30:06.192Z,100769.60
2022-10-13T10:32:44.881Z,100764.20
2022-10-13T10:35:22.054Z,100761.60
2022-10-13T10:38:06.496Z,100754.60
2022-10-13T10:40:50.235Z,100756.40
2022-10-13T10:43:47.948Z,100750.60
2022-10-13T10:46:25.013Z,100747.40
2022-10-13T10:49:01.584Z,100747.80
2022-10-13T10:51:37.245Z,100737.20
2022-10-13T10:54:23.562Z,100737.00
2022-10-13T10:56:59.595Z,100731.00
2022-10-13T10:59:50.677Z,100724.20
2022-10-13T11:02:39.131Z,100725.60
2022-10-13T11:05:10.883Z,100720.20
2022-10-13T11:08:07.391Z,100718.00
2022-10-13T11:10:39.208Z,100713.00
2022-10-13T11:13:27.428Z,100708.40
2022-10-13T11:15:59.256Z,100701.20
2022-10-13T11:19:06.168Z,100700.60
2022-10-13T11:22:12.592Z,100698.00
2022-10-13T11:24:56.723Z,100695.20
2022-10-13T11:27:43.134Z,100693.60
2022-10-13T11:30:44.370Z,100684.40
2022-10-13T11:33:52.140Z,100681.20
2022-10-13T11:36:40.643Z,100679.00
2022-10-13T11:39:53.093Z,100675.40
2022-10-13T11:42:47.284Z,100667.80
2022-10-13T11:45:31.815Z,100633.60
2022-10-13T11:48:29.341Z,100490.20
2022-10-13T11:51:16.257Z,100498.20
2022-10-13T11:53:55.758Z,100508.80
2022-10-13T11:56:48.294Z,100502.40
2022-10-13T11:59:26.921Z,100486.20
2022-10-13T12:02:01.279Z,100484.40
2022-10-13T12:04:33.000Z,100495.60
2022-10-13T12:07:07.430Z,100501.80
2022-10-13T12:09:49.232Z,100532.20
2022-10-13T12:12:23.534Z,100549.80
2022-10-13T12:14:59.904Z,100559.80
2022-10-13T14:58:15.345Z,100584.00
2022-10-13T15:00:47.353Z,100585.60
2022-10-13T15:03:19.319Z,100576.80
2022-10-13T15:05:51.088Z,100569.40
2022-10-13T15:08:28.420Z,100573.80
2022-10-13T15:11:03.915Z,100569.60
2022-10-13T15:13:35.755Z,100564.20
2022-10-13T15:16:09.574Z,100565.60
2022-10-13T15:18:41.918Z,100564.60
2022-10-13T15:21:13.986Z,100562.60
2022-10-13T15:23:46.265Z,100561.60
2022-10-13T15:26:22.427Z,100561.80
2022-10-13T15:28:55.058Z,100563.20
2022-10-13T15:31:26.872Z,100559.00
2022-10-13T15:33:58.679Z,100556.60
2022-10-13T15:36:31.191Z,100559.00
2022-10-13T15:39:02.987Z,100549.40
2022-10-13T15:41:34.790Z,100553.40
2022-10-13T15:44:06.967Z,100551.00
2022-10-13T15:46:49.132Z,100550.60
2022-10-13T15:49:31.165Z,100549.60
2022-10-13T15:52:03.034Z,100550.40
2022-10-13T15:54:35.827Z,100547.40
2022-10-13T15:57:07.660Z,100546.60
2022-10-13T15:59:39.532Z,100548.80
2022-10-13T16:02:11.894Z,100555.80
2022-10-13T16:04:43.722Z,100550.80
2022-10-13T16:07:15.471Z,100551.40
2022-10-13T16:09:47.211Z,100549.80
2022-10-13T16:12:19.163Z,100548.60
2022-10-13T16:14:51.298Z,100551.60
2022-10-13T16:17:23.519Z,100547.40
2022-10-13T16:19:55.311Z,100548.40
2022-10-13T16:22:27.194Z,100548.40
2022-10-13T16:24:59.204Z,100547.60
2022-10-13T16:27:30.982Z,100552.40
2022-10-13T16:30:02.769Z,100544.60
2022-10-13T16:32:43.611Z,100547.40
2022-10-13T16:35:15.571Z,100543.60
2022-10-13T16:37:47.197Z,100541.80
2022-10-13T16:40:18.922Z,100540.80
2022-10-13T16:42:50.713Z,100543.60
2022-10-13T16:45:41.177Z,100543.60
2022-10-13T16:48:13.344Z,100541.80
2022-10-13T16:50:45.664Z,100542.80
2022-10-13T16:53:17.447Z,100533.60
2022-10-13T16:55:49.880Z,100539.40
2022-10-13T16:58:21.955Z,100537.00
2022-10-13T17:00:53.816Z,100535.20
2022-10-13T17:03:25.607Z,100533.40
2022-10-13T17:05:58.622Z,100527.20
2022-10-13T17:08:30.587Z,100532.20
2022-10-13T17:11:03.374Z,100536.80
2022-10-13T17:13:37.307Z,100539.20
2022-10-13T17:16:09.517Z,100534.80
2022-10-13T17:18:43.251Z,100529.00
2022-10-13T17:21:17.398Z,100525.40
2022-10-13T17:23:49.773Z,100522.80
2022-10-13T17:26:22.028Z,100521.20
2022-10-13T17:28:54.248Z,100525.80
2022-10-13T17:31:35.631Z,100524.20
2022-10-13T17:34:09.456Z,100530.00
2022-10-13T17:36:41.260Z,100527.20
2022-10-13T17:39:17.719Z,100526.60
2022-10-13T17:41:49.596Z,100528.80
2022-10-13T17:44:21.566Z,100518.40
2022-10-13T17:46:53.386Z,100511.40
2022-10-13T17:49:25.488Z,100514.40
2022-10-13T17:51:57.381Z,100516.20
2022-10-13T17:54:29.124Z,100520.00
2022-10-13T17:57:00.883Z,100517.20
2022-10-13T17:59:32.883Z,100515.60
2022-10-13T18:02:04.778Z,100514.80
2022-10-13T18:04:37.365Z,100504.80
2022-10-13T18:07:09.230Z,100504.20
2022-10-13T18:09:41.359Z,100508.80
2022-10-13T18:12:13.308Z,100511.60
2022-10-13T18:14:45.281Z,100510.60
2022-10-13T18:17:17.129Z,100510.20
2022-10-13T18:19:49.297Z,100512.80
2022-10-13T18:22:21.056Z,100512.60
2022-10-13T18:24:56.965Z,100514.00
2022-10-13T18:27:29.200Z,100517.40
2022-10-13T18:30:01.129Z,100517.40
2022-10-13T18:32:34.681Z,100518.40
2022-10-13T18:35:10.091Z,100513.80
2022-10-13T18:37:41.944Z,100519.00
2022-10-13T18:40:14.269Z,100515.80
2022-10-13T18:42:54.600Z,100517.00
2022-10-13T18:45:26.576Z,100513.20
2022-10-13T18:47:58.310Z,100510.00
2022-10-13T18:50:30.023Z,100516.20
2022-10-13T18:53:01.811Z,100512.00
2022-10-13T18:55:36.240Z,100506.20
2022-10-13T18:58:07.990Z,100507.00
2022-10-13T19:00:40.666Z,100504.00
2022-10-13T19:03:13.372Z,100507.80
2022-10-13T19:05:46.113Z,100503.20
2022-10-13T19:08:17.799Z,100502.60
2022-10-13T19:10:49.628Z,100501.40
2022-10-13T19:13:21.686Z,100508.20
2022-10-13T19:16:00.039Z,100504.00
2022-10-13T19:18:34.718Z,100507.20
2022-10-13T19:21:07.816Z,100504.40
2022-10-13T19:23:40.240Z,100505.40
2022-10-13T19:26:21.156Z,100509.40
2022-10-13T19:28:56.901Z,100505.00
2022-10-13T19:31:31.523Z,100505.60
2022-10-13T19:34:04.364Z,100504.80
2022-10-13T19:36:38.915Z,100502.60
2022-10-13T19:39:14.773Z,100503.80
2022-10-13T19:41:48.995Z,100503.00
2022-10-13T19:44:21.799Z,100500.00
2022-10-13T19:46:55.339Z,100499.00
2022-10-13T19:49:27.477Z,100500.00
2022-10-13T19:51:59.365Z,100499.60
2022-10-13T19:54:33.936Z,100505.60
2022-10-13T19:57:07.286Z,100505.60
2022-10-13T19:59:42.939Z,100506.60
2022-10-13T20:02:17.198Z,100507.00
2022-10-13T20:04:49.194Z,100506.00
2022-10-13T20:07:21.229Z,100502.40
2022-10-13T20:09:53.171Z,100497.80
2022-10-13T20:12:24.885Z,100501.00
2022-10-13T20:14:56.705Z,100496.80
2022-10-13T20:17:28.548Z,100499.00
2022-10-13T20:20:00.323Z,100501.20
2022-10-13T20:22:32.656Z,100503.60
2022-10-13T20:25:04.888Z,100503.80
2022-10-13T20:27:37.355Z,100504.20
2022-10-13T20:30:12.319Z,100503.80
2022-10-13T20:32:44.462Z,100499.80
2022-10-13T20:35:16.309Z,100494.60
2022-10-13T20:37:48.570Z,100494.00
2022-10-13T20:40:20.686Z,100491.00
2022-10-13T20:42:53.947Z,100489.60
2022-10-13T20:45:26.291Z,100490.80
2022-10-13T20:47:58.072Z,100485.40
2022-10-13T20:50:31.143Z,100489.20
2022-10-13T20:53:03.712Z,100485.80
2022-10-13T20:55:41.727Z,100487.20
2022-10-13T20:58:13.920Z,100484.60
2022-10-13T21:00:49.532Z,100481.60
2022-10-13T21:03:24.589Z,100485.20
2022-10-13T21:05:57.412Z,100485.40
2022-10-13T21:08:29.314Z,100483.60
2022-10-13T21:11:05.829Z,100487.00
2022-10-13T21:13:38.346Z,100485.60
2022-10-13T21:16:13.242Z,100486.40
2022-10-13T21:18:49.372Z,100482.00
2022-10-13T21:21:24.897Z,100484.60
2022-10-13T21:23:59.490Z,100480.80
2022-10-13T21:26:33.487Z,100478.20
2022-10-13T21:29:05.591Z,100474.40
2022-10-13T21:31:39.069Z,100480.40
2022-10-13T21:34:12.534Z,100471.80
2022-10-13T21:36:45.627Z,100468.40
2022-10-13T21:39:18.704Z,100471.80
2022-10-13T21:41:50.739Z,100469.80
2022-10-13T21:44:22.989Z,100467.20
2022-10-13T21:46:55.061Z,100455.20
2022-10-13T21:49:26.863Z,100456.00
2022-10-13T21:51:58.741Z,100459.80
2022-10-13T21:54:30.580Z,100459.40
2022-10-13T21:57:02.518Z,100458.00
2022-10-13T21:59:35.262Z,100462.00
2022-10-13T22:02:07.004Z,100457.00
2022-10-13T22:04:39.172Z,100460.60
2022-10-13T22:07:10.922Z,100461.20
2022-10-13T22:09:42.877Z,100464.40
2022-10-13T22:12:14.812Z,100467.60
2022-10-13T22:14:46.590Z,100463.60
2022-10-13T22:17:18.655Z,100460.40
2022-10-13T22:19:50.683Z,100464.20
2022-10-13T22:22:23.876Z,100458.20
2022-10-13T22:24:57.539Z,100454.80
2022-10-13T22:27:31.486Z,100460.00
2022-10-13T22:30:03.112Z,100454.20
2022-10-13T22:32:34.925Z,100455.00
2022-10-13T22:35:07.496Z,100452.00
2022-10-13T22:37:39.467Z,100452.20
2022-10-13T22:40:12.861Z,100453.80
2022-10-13T22:42:45.065Z,100454.00
2022-10-13T22:45:16.935Z,100455.20
2022-10-13T22:47:51.461Z,100457.80
2022-10-13T22:50:23.183Z,100452.60
2022-10-13T22:52:54.876Z,100452.00
2022-10-13T22:55:26.596Z,100453.20
2022-10-13T22:57:58.240Z,100450.40
2022-10-13T23:00:29.967Z,100448.60
2022-10-13T23:03:01.717Z,100450.00
2022-10-13T23:05:34.428Z,100451.20
2022-10-13T23:08:06.239Z,100452.40
2022-10-13T23:10:38.833Z,100450.40
2022-10-13T23:13:11.296Z,100448.00
2022-10-13T23:15:43.763Z,100443.80
2022-10-13T23:18:15.521Z,100443.20
2022-10-13T23:20:47.250Z,100443.80
2022-10-13T23:23:19.357Z,100448.20
2022-10-13T23:25:51.095Z,100448.20
2022-10-13T23:28:22.943Z,100451.00
2022-10-13T23:30:54.675Z,100444.60
2022-10-13T23:33:27.051Z,100446.80
2022-10-13T23:35:59.781Z,100445.40
2022-10-13T23:38:32.769Z,100447.00
2022-10-13T23:41:09.361Z,100439.60
2022-10-13T23:43:41.711Z,100440.40
2022-10-13T23:46:13.720Z,100438.40
2022-10-13T23:48:45.543Z,100435.00
2022-10-13T23:51:19.862Z,100431.40
2022-10-13T23:53:52.170Z,100432.00
2022-10-13T23:56:24.734Z,100426.20
2022-10-13T23:58:56.587Z,100426.80
